createdAt,value
2022-10-07T00:02:00.087Z,99777.03
2022-10-07T00:04:34.447Z,99781.41
2022-10-07T00:07:03.685Z,99784.88
2022-10-07T00:09:32.738Z,99757.06
2022-10-07T00:12:02.394Z,99775.25
2022-10-07T00:14:33.408Z,99765.03
2022-10-07T00:17:04.028Z,99739.09
2022-10-07T00:19:33.521Z,99774.59
2022-10-07T00:22:02.612Z,99773.78
2022-10-07T00:24:36.915Z,99757.28
2022-10-07T00:27:06.352Z,99782.22
2022-10-07T00:29:37.421Z,99757.22
2022-10-07T00:32:12.113Z,99781.41
2022-10-07T00:34:41.211Z,99778.75
2022-10-07T00:37:10.163Z,99758.81
2022-10-07T00:39:39.842Z,99775.31
2022-10-07T00:42:18.271Z,99788.34
2022-10-07T00:44:49.522Z,99788.38
2022-10-07T00:47:26.852Z,99745.06
2022-10-07T00:50:05.218Z,99810.75
2022-10-07T00:52:39.697Z,99754.59
2022-10-07T00:55:12.945Z,99797.78
2022-10-07T00:57:48.761Z,99791.78
2022-10-07T01:00:21.487Z,99806.50
2022-10-07T01:02:50.852Z,99804.19
2022-10-07T01:05:20.265Z,99797.66
2022-10-07T01:07:59.119Z,99792.53
2022-10-07T01:10:39.866Z,99807.38
2022-10-07T01:13:15.884Z,99820.59
2022-10-07T01:16:00.870Z,99816.31
2022-10-07T01:18:38.150Z,99831.88
2022-10-07T01:21:17.142Z,99815.56
2022-10-07T01:24:05.111Z,99823.09
2022-10-07T01:27:00.727Z,99827.25
2022-10-07T01:29:41.672Z,99832.53
2022-10-07T01:34:53.841Z,99824.03
2022-10-07T01:37:26.609Z,99844.72
2022-10-07T01:40:07.010Z,99827.47
2022-10-07T01:42:43.544Z,99834.50
2022-10-07T01:47:51.872Z,99833.78
2022-10-07T01:50:25.658Z,99842.44
2022-10-07T01:53:19.117Z,99858.03
2022-10-07T01:55:58.505Z,99864.88
2022-10-07T01:58:47.073Z,99860.50
2022-10-07T02:01:23.138Z,99867.41
2022-10-07T02:04:10.429Z,99881.16
2022-10-07T02:06:48.420Z,99876.09
2022-10-07T02:09:28.862Z,99874.44
2022-10-07T02:12:06.823Z,99896.16
2022-10-07T02:14:47.145Z,99878.94
2022-10-07T02:17:22.387Z,99881.56
2022-10-07T02:19:59.269Z,99892.72
2022-10-07T02:22:30.713Z,99885.91
2022-10-07T02:25:03.674Z,99874.75
2022-10-07T02:27:37.102Z,99897.13
2022-10-07T02:30:16.535Z,99889.38
2022-10-07T02:32:50.338Z,99863.41
2022-10-07T02:38:05.646Z,99875.44
2022-10-07T02:40:38.874Z,99873.59
2022-10-07T02:43:13.980Z,99888.38
2022-10-07T02:45:57.150Z,99890.06
2022-10-07T02:48:30.416Z,99890.09
2022-10-07T02:51:05.770Z,99916.91
2022-10-07T02:53:37.220Z,99905.72
2022-10-07T02:56:16.998Z,99891.00
2022-10-07T02:58:48.602Z,99885.88
2022-10-07T03:01:25.159Z,99899.72
2022-10-07T03:03:54.945Z,99902.31
2022-10-07T03:06:29.174Z,99899.00
2022-10-07T03:09:00.475Z,99895.66
2022-10-07T03:11:36.952Z,99921.38
2022-10-07T03:14:06.273Z,99917.84
2022-10-07T03:16:37.485Z,99868.69
2022-10-07T03:19:07.089Z,99914.38
2022-10-07T03:21:53.617Z,99917.00
2022-10-07T03:24:28.069Z,99890.25
2022-10-07T03:26:57.220Z,99900.63
2022-10-07T03:29:26.893Z,99902.31
2022-10-07T03:32:03.214Z,99917.91
2022-10-07T03:34:35.086Z,99931.72
2022-10-07T03:37:10.958Z,99932.56
2022-10-07T03:39:40.203Z,99940.38
2022-10-07T03:42:15.206Z,99948.97
2022-10-07T03:44:45.226Z,99939.44
2022-10-07T03:47:17.907Z,99925.59
2022-10-07T03:49:52.922Z,99949.72
2022-10-07T03:52:22.670Z,99955.81
2022-10-07T03:54:52.784Z,99949.81
2022-10-07T03:57:35.045Z,99948.16
2022-10-07T04:00:09.345Z,99896.47
2022-10-07T04:02:45.911Z,99945.63
2022-10-07T04:05:16.218Z,99944.78
2022-10-07T04:07:51.323Z,99938.78
2022-10-07T04:10:22.637Z,99942.22
2022-10-07T04:12:56.859Z,99959.50
2022-10-07T04:15:26.276Z,99969.00
2022-10-07T04:18:04.630Z,99963.03
2022-10-07T04:20:33.950Z,99965.63
2022-10-07T04:23:03.354Z,99962.16
2022-10-07T04:25:37.348Z,99976.78
2022-10-07T04:28:18.604Z,99990.53
2022-10-07T04:30:51.305Z,99985.28
2022-10-07T04:33:26.586Z,99983.59
2022-10-07T04:36:06.405Z,99983.53
2022-10-07T04:38:39.262Z,99999.97
2022-10-07T04:41:14.854Z,100010.34
2022-10-07T04:46:19.353Z,99987.91
2022-10-07T04:48:55.184Z,100004.19
2022-10-07T04:51:27.483Z,100011.91
2022-10-07T04:54:00.223Z,100013.59
2022-10-07T04:56:41.881Z,100005.66
2022-10-07T04:59:13.997Z,99985.03
2022-10-07T05:01:44.744Z,100010.03
2022-10-07T05:04:16.669Z,99998.81
2022-10-07T05:06:51.056Z,100021.22
2022-10-07T05:09:20.245Z,100006.47
2022-10-07T05:11:50.768Z,100026.28
2022-10-07T05:14:22.589Z,100025.41
2022-10-07T05:16:53.960Z,100023.63
2022-10-07T05:19:28.721Z,100020.94
2022-10-07T05:21:58.100Z,100026.06
2022-10-07T05:24:28.221Z,100049.28
2022-10-07T05:27:13.541Z,100050.63
2022-10-07T05:29:46.432Z,100052.69
2022-10-07T05:32:15.787Z,100044.69
2022-10-07T05:34:46.974Z,100037.56
2022-10-07T05:37:16.927Z,100053.16
2022-10-07T05:39:46.191Z,100067.88
2022-10-07T05:42:20.458Z,100065.28
2022-10-07T05:45:04.818Z,100070.19
2022-10-07T05:47:35.333Z,100067.63
2022-10-07T05:50:08.955Z,100053.75
2022-10-07T05:52:43.167Z,100074.63
2022-10-07T05:55:12.475Z,100072.03
2022-10-07T05:57:47.035Z,100058.13
2022-10-07T06:00:18.763Z,100067.53
2022-10-07T06:02:58.575Z,100078.81
2022-10-07T06:05:32.243Z,100075.47
2022-10-07T06:08:01.849Z,100098.28
2022-10-07T06:10:43.934Z,100094.13
2022-10-07T06:13:13.158Z,100069.63
2022-10-07T06:15:44.326Z,100079.94
2022-10-07T06:18:13.629Z,100092.00
2022-10-07T06:20:55.145Z,100101.22
2022-10-07T06:23:25.739Z,100083.88
2022-10-07T06:25:57.573Z,100104.16
2022-10-07T06:28:36.813Z,100101.09
2022-10-07T06:31:06.931Z,100109.59
2022-10-07T06:33:37.949Z,100120.00
2022-10-07T06:36:12.418Z,100115.44
2022-10-07T06:38:49.397Z,100115.94
2022-10-07T06:41:21.712Z,100127.38
2022-10-07T06:43:57.906Z,100122.97
2022-10-07T06:46:29.323Z,100138.06
2022-10-07T06:48:59.570Z,100128.13
2022-10-07T06:51:30.796Z,100161.25
2022-10-07T06:54:00.063Z,100143.13
2022-10-07T06:56:35.103Z,100148.25
2022-10-07T06:59:04.581Z,100157.38
2022-10-07T07:01:41.225Z,100145.28
2022-10-07T07:09:33.190Z,100153.19
2022-10-07T07:12:04.358Z,100166.16
2022-10-07T07:14:42.545Z,100173.78
2022-10-07T07:17:17.439Z,100152.94
2022-10-07T07:22:24.134Z,100187.38
2022-10-07T07:24:58.520Z,100184.63
2022-10-07T07:27:28.127Z,100174.06
2022-10-07T07:30:02.830Z,100160.06
2022-10-07T07:32:33.570Z,100174.84
2022-10-07T07:35:04.278Z,100177.50
2022-10-07T07:37:40.773Z,100181.97
2022-10-07T07:40:11.726Z,100193.78
2022-10-07T07:42:40.953Z,100189.25
2022-10-07T07:45:17.684Z,100208.69
2022-10-07T07:47:49.079Z,100195.00
2022-10-07T07:50:20.496Z,100223.63
2022-10-07T07:52:57.100Z,100211.66
2022-10-07T07:55:26.895Z,100195.50
2022-10-07T07:57:56.211Z,100190.38
2022-10-07T08:00:25.455Z,100172.22
2022-10-07T08:03:02.659Z,100187.81
2022-10-07T08:05:33.675Z,100228.41
2022-10-07T08:08:05.134Z,100210.84
2022-10-07T08:10:34.924Z,100204.72
2022-10-07T08:13:04.047Z,100226.22
2022-10-07T08:15:33.686Z,100229.53
2022-10-07T08:18:03.973Z,100239.63
2022-10-07T08:20:38.662Z,100233.09
2022-10-07T08:23:12.098Z,100234.88
2022-10-07T08:25:46.236Z,100222.91
2022-10-07T08:28:16.105Z,100230.31
2022-10-07T08:30:46.195Z,100230.69
2022-10-07T08:33:15.500Z,100216.72
2022-10-07T08:35:44.747Z,100228.75
2022-10-07T08:38:16.024Z,100233.88
2022-10-07T08:40:49.432Z,100249.47
2022-10-07T08:43:25.343Z,100237.09
2022-10-07T08:45:55.610Z,100219.41
2022-10-07T08:48:31.259Z,100234.34
2022-10-07T08:51:13.673Z,100261.03
2022-10-07T08:53:46.988Z,100268.44
2022-10-07T08:56:19.340Z,100252.69
2022-10-07T08:59:02.991Z,100252.84
2022-10-07T09:01:47.058Z,100242.66
2022-10-07T09:04:34.134Z,100237.28
2022-10-07T09:07:06.962Z,100220.84
2022-10-07T09:09:43.091Z,100263.28
2022-10-07T09:12:22.497Z,100246.63
2022-10-07T09:14:56.340Z,100262.03
2022-10-07T09:17:34.892Z,100247.16
2022-10-07T09:20:08.835Z,100256.91
2022-10-07T09:22:42.362Z,100259.47
2022-10-07T09:25:23.559Z,100266.84
2022-10-07T09:27:54.072Z,100256.28
2022-10-07T09:30:27.564Z,100249.47
2022-10-07T09:35:38.295Z,100266.81
2022-10-07T09:38:09.578Z,100269.25
2022-10-07T09:41:07.074Z,100264.56
2022-10-07T09:43:37.238Z,100271.28
2022-10-07T09:46:07.795Z,100276.59
2022-10-07T09:48:36.968Z,100266.72
2022-10-07T09:51:18.325Z,100271.94
2022-10-07T09:53:59.545Z,100266.25
2022-10-07T09:56:39.527Z,100262.03
2022-10-07T09:59:27.195Z,100256.81
2022-10-07T10:01:59.135Z,100254.31
2022-10-07T10:04:33.373Z,100249.19
2022-10-07T10:09:55.774Z,100277.66
2022-10-07T10:12:28.311Z,100245.44
2022-10-07T10:15:05.521Z,100258.00
2022-10-07T10:17:41.475Z,100256.66
2022-10-07T10:20:39.053Z,100264.16
2022-10-07T10:23:29.716Z,100255.44
2022-10-07T10:26:34.413Z,100259.13
2022-10-07T10:29:39.654Z,100250.59
2022-10-07T10:32:29.149Z,100263.09
2022-10-07T10:35:04.937Z,100247.09
2022-10-07T10:37:57.936Z,100269.78
2022-10-07T10:40:34.286Z,100271.50
2022-10-07T10:43:17.100Z,100262.66
2022-10-07T10:46:02.665Z,100241.84
2022-10-07T10:48:39.561Z,100256.72
2022-10-07T10:51:25.113Z,100272.31
2022-10-07T10:54:10.313Z,100254.72
2022-10-07T10:56:47.594Z,100253.06
2022-10-07T10:59:33.978Z,100249.63
2022-10-07T11:02:25.286Z,100246.72
2022-10-07T11:04:58.834Z,100247.00
2022-10-07T11:07:34.564Z,100257.69
2022-10-07T11:10:08.983Z,100248.50
2022-10-07T11:12:43.152Z,100237.22
2022-10-07T11:15:23.382Z,100260.28
2022-10-07T11:17:58.017Z,100262.66
2022-10-07T11:20:32.828Z,100260.75
2022-10-07T11:23:14.416Z,100238.09
2022-10-07T11:25:49.038Z,100242.38
2022-10-07T11:28:23.903Z,100272.97
2022-10-07T11:30:59.930Z,100256.81
2022-10-07T11:33:42.768Z,100274.13
2022-10-07T11:36:17.726Z,100285.63
2022-10-07T11:38:48.651Z,100284.66
2022-10-07T11:41:23.796Z,100275.03
2022-10-07T11:44:01.632Z,100266.34
2022-10-07T11:46:36.761Z,100284.53
2022-10-07T11:49:14.323Z,100296.84
2022-10-07T11:51:54.206Z,100262.94
2022-10-07T11:54:37.917Z,100273.13
2022-10-07T11:57:07.269Z,100301.19
2022-10-07T11:59:45.706Z,100290.00
2022-10-07T12:02:39.636Z,100293.69
2022-10-07T12:05:46.203Z,100286.91
2022-10-07T12:08:33.273Z,100260.06
2022-10-07T12:11:35.168Z,100286.84
2022-10-07T12:14:31.720Z,100265.50
2022-10-07T12:17:30.924Z,100285.06
2022-10-07T12:20:35.009Z,100276.38
2022-10-07T12:23:45.395Z,100295.41
2022-10-07T12:26:49.362Z,100298.75
2022-10-07T12:29:35.655Z,100293.34
2022-10-07T12:32:44.677Z,100275.03
2022-10-07T12:35:43.849Z,100292.50
2022-10-07T12:38:20.177Z,100310.00
2022-10-07T12:40:55.759Z,100303.94
2022-10-07T12:43:42.879Z,100307.44
2022-10-07T12:46:16.506Z,100325.00
2022-10-07T12:56:30.838Z,100323.72
2022-10-07T12:59:51.689Z,100322.00
2022-10-07T13:02:53.726Z,100324.84
2022-10-07T13:05:49.480Z,100322.19
2022-10-07T13:08:48.345Z,100329.16
2022-10-07T13:11:48.061Z,100315.19
2022-10-07T13:14:24.597Z,100324.22
2022-10-07T13:17:01.145Z,100322.31
2022-10-07T13:19:36.794Z,100346.63
2022-10-07T13:22:15.738Z,100325.81
2022-10-07T13:24:49.800Z,100341.41
2022-10-07T13:27:26.437Z,100350.94
2022-10-07T13:29:56.397Z,100335.34
2022-10-07T13:32:29.722Z,100315.47
2022-10-07T13:35:01.160Z,100330.25
2022-10-07T13:37:38.653Z,100345.09
2022-10-07T13:40:23.640Z,100339.94
2022-10-07T13:42:58.671Z,100326.09
2022-10-07T13:45:29.148Z,100343.50
2022-10-07T13:47:58.882Z,100337.41
2022-10-07T13:50:30.923Z,100343.50
2022-10-07T13:53:01.079Z,100331.50
2022-10-07T13:55:31.591Z,100341.00
2022-10-07T13:58:06.205Z,100336.81
2022-10-07T14:00:42.946Z,100334.19
2022-10-07T14:03:15.841Z,100340.19
2022-10-07T14:05:51.511Z,100344.59
2022-10-07T14:08:22.963Z,100336.09
2022-10-07T14:10:55.883Z,100336.25
2022-10-07T14:13:28.515Z,100355.34
2022-10-07T14:15:59.376Z,100348.53
2022-10-07T14:18:30.879Z,100352.81
2022-10-07T14:21:16.387Z,100346.84
2022-10-07T14:23:46.726Z,100329.41
2022-10-07T14:26:17.255Z,100356.38
2022-10-07T14:28:48.370Z,100347.94
2022-10-07T14:31:35.598Z,100374.69
2022-10-07T14:34:28.046Z,100366.03
2022-10-07T14:37:09.808Z,100333.41
2022-10-07T14:39:40.225Z,100366.97
2022-10-07T14:42:14.118Z,100370.56
2022-10-07T14:44:57.136Z,100363.69
2022-10-07T14:47:27.830Z,100377.44
2022-10-07T14:49:59.035Z,100392.19
2022-10-07T14:52:39.638Z,100385.28
2022-10-07T14:55:23.666Z,100390.50
2022-10-07T14:57:53.267Z,100383.56
2022-10-07T15:00:27.220Z,100385.31
2022-10-07T15:03:02.506Z,100389.63
2022-10-07T15:05:39.732Z,100374.97
2022-10-07T15:08:10.426Z,100383.59
2022-10-07T15:10:42.213Z,100396.56
2022-10-07T15:13:13.430Z,100399.19
2022-10-07T15:15:47.042Z,100397.53
2022-10-07T15:18:16.339Z,100403.69
2022-10-07T15:20:45.450Z,100403.75
2022-10-07T15:23:15.556Z,100400.31
2022-10-07T15:25:45.444Z,100400.31
2022-10-07T15:28:15.649Z,100408.09
2022-10-07T15:30:46.998Z,100408.09
2022-10-07T15:33:16.461Z,100423.69
2022-10-07T15:35:45.931Z,100420.34
2022-10-07T15:38:15.217Z,100377.47
2022-10-07T15:40:55.819Z,100418.84
2022-10-07T15:43:25.608Z,100430.16
2022-10-07T15:45:58.537Z,100425.03
2022-10-07T15:48:28.425Z,100396.56
2022-10-07T15:51:00.104Z,100396.41
2022-10-07T15:53:29.877Z,100392.97
2022-10-07T15:56:00.065Z,100429.22
2022-10-07T15:58:32.189Z,100417.22
2022-10-07T16:01:10.868Z,100418.13
2022-10-07T16:03:42.518Z,100433.69
2022-10-07T16:06:15.449Z,100424.25
2022-10-07T16:08:44.889Z,100434.59
2022-10-07T16:11:14.637Z,100438.06
2022-10-07T16:13:46.589Z,100456.16
2022-10-07T16:16:19.675Z,100444.88
2022-10-07T16:18:50.331Z,100437.13
2022-10-07T16:21:22.871Z,100426.75
2022-10-07T16:23:54.298Z,100444.94
2022-10-07T16:26:26.456Z,100441.50
2022-10-07T16:29:15.296Z,100447.59
2022-10-07T16:31:47.538Z,100441.56
2022-10-07T16:34:18.801Z,100449.34
2022-10-07T16:36:49.729Z,100444.16
2022-10-07T16:39:24.155Z,100451.94
2022-10-07T16:41:53.750Z,100436.44
2022-10-07T16:44:34.969Z,100457.13
2022-10-07T16:47:06.141Z,100457.16
2022-10-07T16:49:36.064Z,100459.75
2022-10-07T16:52:06.061Z,100436.47
2022-10-07T16:54:35.261Z,100445.94
2022-10-07T16:57:04.569Z,100453.72
2022-10-07T16:59:34.035Z,100468.38
2022-10-07T17:02:06.121Z,100459.72
2022-10-07T17:04:35.839Z,100464.06
2022-10-07T17:07:05.399Z,100461.47
2022-10-07T17:09:34.600Z,100462.31
2022-10-07T17:12:04.135Z,100448.53
2022-10-07T17:14:38.178Z,100470.97
2022-10-07T17:17:09.497Z,100456.31
2022-10-07T17:19:39.085Z,100459.75
2022-10-07T17:22:09.209Z,100458.03
2022-10-07T17:24:38.915Z,100457.16
2022-10-07T17:27:13.573Z,100455.44
2022-10-07T17:29:42.923Z,100470.09
2022-10-07T17:32:14.208Z,100487.31
2022-10-07T17:34:45.558Z,100474.38
2022-10-07T17:37:15.167Z,100474.41
2022-10-07T17:39:44.424Z,100485.63
2022-10-07T17:42:18.828Z,100480.44
2022-10-07T17:44:48.261Z,100457.16
2022-10-07T17:47:19.645Z,100479.56
2022-10-07T17:49:49.037Z,100467.50
2022-10-07T17:52:18.370Z,100470.06
2022-10-07T17:54:49.703Z,100473.56
2022-10-07T17:57:20.974Z,100476.09
2022-10-07T17:59:53.074Z,100477.84
2022-10-07T18:02:40.605Z,100487.28
2022-10-07T18:05:10.380Z,100476.09
2022-10-07T18:07:39.510Z,100480.41
2022-10-07T18:10:09.607Z,100476.97
2022-10-07T18:12:51.789Z,100496.78
2022-10-07T18:15:23.908Z,100489.06
2022-10-07T18:18:06.150Z,100495.94
2022-10-07T18:20:41.104Z,100481.28
2022-10-07T18:23:10.474Z,100486.44
2022-10-07T18:25:40.678Z,100493.34
2022-10-07T18:28:10.134Z,100476.09
2022-10-07T18:30:39.520Z,100490.75
2022-10-07T18:33:10.806Z,100479.53
2022-10-07T18:35:40.382Z,100492.47
2022-10-07T18:38:09.423Z,100493.31
2022-10-07T18:40:38.674Z,100493.31
2022-10-07T18:43:08.299Z,100492.44
2022-10-07T18:45:37.792Z,100495.03
2022-10-07T18:48:07.176Z,100493.28
2022-10-07T18:50:38.264Z,100485.53
2022-10-07T18:53:07.502Z,100491.56
2022-10-07T18:55:40.849Z,100499.31
2022-10-07T18:58:11.353Z,100499.28
2022-10-07T19:00:43.036Z,100498.44
2022-10-07T19:03:12.486Z,100494.97
2022-10-07T19:05:48.922Z,100481.19
2022-10-07T19:08:18.873Z,100494.97
2022-10-07T19:10:48.001Z,100508.72
2022-10-07T19:13:35.592Z,100512.19
2022-10-07T19:16:05.616Z,100514.72
2022-10-07T19:18:41.789Z,100520.78
2022-10-07T19:21:14.751Z,100520.78
2022-10-07T19:23:44.541Z,100527.63
2022-10-07T19:26:21.470Z,100517.31
2022-10-07T19:28:51.941Z,100525.94
2022-10-07T19:31:24.867Z,100512.09
2022-10-07T19:34:01.909Z,100519.03
2022-10-07T19:36:34.963Z,100534.53
2022-10-07T19:39:05.760Z,100525.88
2022-10-07T19:41:36.792Z,100531.91
2022-10-07T19:44:07.271Z,100530.19
2022-10-07T19:46:37.446Z,100519.00
2022-10-07T19:49:08.910Z,100521.53
2022-10-07T19:51:41.738Z,100537.94
2022-10-07T19:54:17.567Z,100491.34
2022-10-07T19:56:46.971Z,100506.84
2022-10-07T19:59:16.635Z,100544.78
2022-10-07T20:01:49.262Z,100531.84
2022-10-07T20:04:20.619Z,100525.81
2022-10-07T20:06:51.882Z,100540.47
2022-10-07T20:09:22.411Z,100536.16
2022-10-07T20:11:51.630Z,100537.00
2022-10-07T20:14:32.702Z,100535.22
2022-10-07T20:17:06.956Z,100524.03
2022-10-07T20:19:36.124Z,100536.06
2022-10-07T20:22:07.248Z,100533.47
2022-10-07T20:24:36.551Z,100534.31
2022-10-07T20:27:06.142Z,100532.50
2022-10-07T20:29:55.350Z,100538.56
2022-10-07T20:32:24.679Z,100553.22
2022-10-07T20:34:54.601Z,100546.31
2022-10-07T20:37:25.919Z,100540.16
2022-10-07T20:40:08.163Z,100533.34
2022-10-07T20:42:46.877Z,100545.47
2022-10-07T20:45:17.038Z,100542.78
2022-10-07T20:47:46.938Z,100545.47
2022-10-07T20:50:16.111Z,100549.75
2022-10-07T20:52:47.434Z,100545.34
2022-10-07T20:55:22.020Z,100539.31
2022-10-07T20:57:51.280Z,100559.13
2022-10-07T21:00:20.638Z,100559.94
2022-10-07T21:02:50.388Z,100545.28
2022-10-07T21:05:20.306Z,100563.38
2022-10-07T21:07:54.685Z,100565.97
2022-10-07T21:10:24.156Z,100549.59
2022-10-07T21:12:53.528Z,100564.28
2022-10-07T21:15:22.752Z,100559.09
2022-10-07T21:17:51.911Z,100565.13
2022-10-07T21:20:21.211Z,100570.28
2022-10-07T21:22:53.790Z,100555.59
2022-10-07T21:25:23.023Z,100569.38
2022-10-07T21:27:52.089Z,100558.19
2022-10-07T21:30:21.234Z,100566.78
2022-10-07T21:32:50.348Z,100567.72
2022-10-07T21:35:19.513Z,100562.53
2022-10-07T21:37:53.697Z,100570.25
2022-10-07T21:40:25.044Z,100573.69
2022-10-07T21:42:54.374Z,100572.78
2022-10-07T21:45:23.523Z,100574.50
2022-10-07T21:47:58.696Z,100573.63
2022-10-07T21:50:27.830Z,100573.63
2022-10-07T21:52:56.862Z,100579.59
2022-10-07T21:55:35.966Z,100577.00
2022-10-07T21:58:11.528Z,100572.69
2022-10-07T22:00:46.535Z,100573.50
2022-10-07T22:03:16.479Z,100572.66
2022-10-07T22:05:45.507Z,100580.41
2022-10-07T22:08:29.755Z,100571.69
2022-10-07T22:11:04.062Z,100581.19
2022-10-07T22:13:40.825Z,100563.94
2022-10-07T22:16:14.269Z,100585.50
2022-10-07T22:18:44.994Z,100575.16
2022-10-07T22:21:15.813Z,100584.59
2022-10-07T22:23:45.981Z,100582.03
2022-10-07T22:26:29.446Z,100578.59
2022-10-07T22:28:58.935Z,100583.72
2022-10-07T22:31:29.734Z,100582.81
2022-10-07T22:34:00.935Z,100582.81
2022-10-07T22:36:31.090Z,100584.53
2022-10-07T22:39:01.078Z,100572.41
2022-10-07T22:41:32.471Z,100577.59
2022-10-07T22:44:01.877Z,100584.56
2022-10-07T22:46:36.116Z,100581.00
2022-10-07T22:49:05.365Z,100581.88
2022-10-07T22:51:34.457Z,100582.72
2022-10-07T22:56:47.161Z,100568.81
2022-10-07T22:59:16.546Z,100569.66
2022-10-07T23:01:45.656Z,100588.72
2022-10-07T23:04:14.664Z,100583.53
2022-10-07T23:06:43.602Z,100586.94
2022-10-07T23:09:13.111Z,100596.38
2022-10-07T23:11:42.269Z,100583.44
2022-10-07T23:14:13.674Z,100581.72
2022-10-07T23:16:55.854Z,100580.00
2022-10-07T23:19:25.075Z,100586.00
2022-10-07T23:21:54.623Z,100572.16
2022-10-07T23:24:23.589Z,100578.25
2022-10-07T23:27:02.903Z,100573.13
2022-10-07T23:29:34.697Z,100567.09
2022-10-07T23:32:03.683Z,100573.16
2022-10-07T23:34:33.157Z,100574.75
2022-10-07T23:37:02.430Z,100573.88
2022-10-07T23:39:31.527Z,100564.28
2022-10-07T23:42:05.885Z,100559.03
2022-10-07T23:44:37.994Z,100564.28
2022-10-07T23:47:07.652Z,100564.31
2022-10-07T23:49:36.770Z,100566.84
2022-10-07T23:54:40.222Z,100567.66
2022-10-07T23:57:09.328Z,100573.66
2022-10-07T23:59:41.858Z,100573.66
